sensor_id;sensor_type;location;lat;lon;timestamp;pressure;altitude;pressure_sealevel;temperature;humidity
50292;BME280;36190;54.980;73.388;2023-05-25T00:00:58;100934.50;;;16.73;53.87
50292;BME280;36190;54.980;73.388;2023-05-25T00:03:26;100929.56;;;16.77;52.50
50292;BME280;36190;54.980;73.388;2023-05-25T00:05:53;100930.22;;;16.86;51.98
50292;BME280;36190;54.980;73.388;2023-05-25T00:08:21;100935.88;;;16.91;51.98
50292;BME280;36190;54.980;73.388;2023-05-25T00:10:48;100926.34;;;16.95;52.10
50292;BME280;36190;54.980;73.388;2023-05-25T00:13:17;100940.47;;;16.97;52.67
50292;BME280;36190;54.980;73.388;2023-05-25T00:15:45;100933.44;;;16.96;52.74
50292;BME280;36190;54.980;73.388;2023-05-25T00:18:13;100936.75;;;16.98;52.75
50292;BME280;36190;54.980;73.388;2023-05-25T00:20:40;100926.22;;;17.03;52.09
50292;BME280;36190;54.980;73.388;2023-05-25T00:23:09;100923.59;;;17.10;50.92
50292;BME280;36190;54.980;73.388;2023-05-25T00:25:36;100927.38;;;17.23;48.97
50292;BME280;36190;54.980;73.388;2023-05-25T00:28:04;100914.16;;;17.35;47.59
50292;BME280;36190;54.980;73.388;2023-05-25T00:30:33;100911.28;;;17.43;46.37
50292;BME280;36190;54.980;73.388;2023-05-25T00:33:01;100908.81;;;17.48;45.87
50292;BME280;36190;54.980;73.388;2023-05-25T00:35:28;100900.94;;;17.53;45.21
50292;BME280;36190;54.980;73.388;2023-05-25T00:37:55;100910.94;;;17.59;44.82
50292;BME280;36190;54.980;73.388;2023-05-25T00:40:23;100904.72;;;17.66;44.50
50292;BME280;36190;54.980;73.388;2023-05-25T00:42:51;100904.75;;;17.72;44.00
50292;BME280;36190;54.980;73.388;2023-05-25T00:45:19;100910.19;;;17.79;43.78
50292;BME280;36190;54.980;73.388;2023-05-25T00:47:50;100905.22;;;17.90;43.51
50292;BME280;36190;54.980;73.388;2023-05-25T00:50:25;100902.31;;;17.91;43.34
50292;BME280;36190;54.980;73.388;2023-05-25T00:52:56;100900.03;;;18.01;43.16
50292;BME280;36190;54.980;73.388;2023-05-25T00:55:24;100892.56;;;18.04;43.29
50292;BME280;36190;54.980;73.388;2023-05-25T00:57:56;100899.47;;;18.06;43.10
50292;BME280;36190;54.980;73.388;2023-05-25T01:00:27;100888.63;;;17.99;43.54
50292;BME280;36190;54.980;73.388;2023-05-25T01:02:58;100898.59;;;18.06;44.49
50292;BME280;36190;54.980;73.388;2023-05-25T01:05:28;100898.59;;;18.06;45.03
50292;BME280;36190;54.980;73.388;2023-05-25T01:07:58;100879.69;;;17.92;45.78
50292;BME280;36190;54.980;73.388;2023-05-25T01:10:30;100873.00;;;17.81;46.25
50292;BME280;36190;54.980;73.388;2023-05-25T01:13:01;100889.81;;;17.90;46.20
50292;BME280;36190;54.980;73.388;2023-05-25T01:15:29;100881.53;;;17.78;46.40
50292;BME280;36190;54.980;73.388;2023-05-25T01:17:58;100871.13;;;17.68;47.08
50292;BME280;36190;54.980;73.388;2023-05-25T01:20:26;100858.63;;;17.60;47.54
50292;BME280;36190;54.980;73.388;2023-05-25T01:22:58;100860.28;;;17.48;47.97
50292;BME280;36190;54.980;73.388;2023-05-25T01:25:35;100859.84;;;17.38;48.10
50292;BME280;36190;54.980;73.388;2023-05-25T01:28:05;100857.34;;;17.43;48.02
50292;BME280;36190;54.980;73.388;2023-05-25T01:30:34;100839.06;;;17.38;47.89
50292;BME280;36190;54.980;73.388;2023-05-25T01:33:03;100850.09;;;17.50;47.45
50292;BME280;36190;54.980;73.388;2023-05-25T01:35:32;100868.84;;;17.72;47.06
50292;BME280;36190;54.980;73.388;2023-05-25T01:38:02;100856.63;;;17.90;46.69
50292;BME280;36190;54.980;73.388;2023-05-25T01:40:29;100855.38;;;17.99;46.10
50292;BME280;36190;54.980;73.388;2023-05-25T01:42:56;100852.94;;;18.11;45.88
50292;BME280;36190;54.980;73.388;2023-05-25T01:45:24;100862.09;;;18.23;45.81
50292;BME280;36190;54.980;73.388;2023-05-25T01:47:58;100856.47;;;18.32;45.83
50292;BME280;36190;54.980;73.388;2023-05-25T01:50:35;100845.66;;;18.38;46.30
50292;BME280;36190;54.980;73.388;2023-05-25T01:53:09;100836.91;;;18.43;46.11
50292;BME280;36190;54.980;73.388;2023-05-25T01:55:43;100832.97;;;18.52;46.56
50292;BME280;36190;54.980;73.388;2023-05-25T01:58:13;100846.03;;;18.69;46.11
50292;BME280;36190;54.980;73.388;2023-05-25T02:00:41;100829.16;;;18.80;45.81
50292;BME280;36190;54.980;73.388;2023-05-25T02:03:09;100822.03;;;18.93;45.74
50292;BME280;36190;54.980;73.388;2023-05-25T02:05:38;100824.34;;;19.03;45.49
50292;BME280;36190;54.980;73.388;2023-05-25T02:08:09;100832.22;;;19.04;45.08
50292;BME280;36190;54.980;73.388;2023-05-25T02:10:37;100826.19;;;18.95;44.94
50292;BME280;36190;54.980;73.388;2023-05-25T02:13:04;100824.34;;;18.89;44.93
50292;BME280;36190;54.980;73.388;2023-05-25T02:15:32;100826.22;;;18.89;45.11
50292;BME280;36190;54.980;73.388;2023-05-25T02:18:00;100831.63;;;18.82;45.12
50292;BME280;36190;54.980;73.388;2023-05-25T02:20:30;100835.38;;;18.81;45.35
50292;BME280;36190;54.980;73.388;2023-05-25T02:22:58;100839.09;;;18.87;45.30
50292;BME280;36190;54.980;73.388;2023-05-25T02:25:27;100828.47;;;18.99;45.38
50292;BME280;36190;54.980;73.388;2023-05-25T02:27:54;100822.84;;;19.14;45.07
50292;BME280;36190;54.980;73.388;2023-05-25T02:30:22;100826.47;;;19.33;44.85
50292;BME280;36190;54.980;73.388;2023-05-25T02:32:49;100824.16;;;19.43;44.88
50292;BME280;36190;54.980;73.388;2023-05-25T02:35:18;100820.53;;;19.49;44.72
50292;BME280;36190;54.980;73.388;2023-05-25T02:37:46;100806.72;;;19.64;44.62
50292;BME280;36190;54.980;73.388;2023-05-25T02:40:14;100790.75;;;19.82;44.16
50292;BME280;36190;54.980;73.388;2023-05-25T02:42:42;100787.38;;;19.93;44.21
50292;BME280;36190;54.980;73.388;2023-05-25T02:45:10;100798.72;;;20.09;43.99
50292;BME280;36190;54.980;73.388;2023-05-25T02:47:38;100801.34;;;20.15;43.74
50292;BME280;36190;54.980;73.388;2023-05-25T02:50:06;100803.41;;;20.20;43.17
50292;BME280;36190;54.980;73.388;2023-05-25T02:52:34;100809.69;;;20.14;43.43
50292;BME280;36190;54.980;73.388;2023-05-25T02:55:01;100817.06;;;20.06;43.57
50292;BME280;36190;54.980;73.388;2023-05-25T02:57:29;100810.72;;;19.94;43.83
50292;BME280;36190;54.980;73.388;2023-05-25T02:59:58;100809.22;;;19.91;44.08
50292;BME280;36190;54.980;73.388;2023-05-25T03:02:25;100805.28;;;19.94;44.13
50292;BME280;36190;54.980;73.388;2023-05-25T03:04:53;100797.50;;;20.04;44.07
50292;BME280;36190;54.980;73.388;2023-05-25T03:07:21;100803.63;;;20.18;43.72
50292;BME280;36190;54.980;73.388;2023-05-25T03:09:50;100827.50;;;20.28;43.76
50292;BME280;36190;54.980;73.388;2023-05-25T03:12:17;100822.00;;;20.35;43.57
50292;BME280;36190;54.980;73.388;2023-05-25T03:14:45;100830.69;;;20.44;43.71
50292;BME280;36190;54.980;73.388;2023-05-25T03:17:14;100843.66;;;20.42;43.97
50292;BME280;36190;54.980;73.388;2023-05-25T03:19:41;100846.94;;;20.44;44.04
50292;BME280;36190;54.980;73.388;2023-05-25T03:22:09;100836.88;;;20.51;44.05
50292;BME280;36190;54.980;73.388;2023-05-25T03:24:37;100832.59;;;20.62;43.71
50292;BME280;36190;54.980;73.388;2023-05-25T03:27:06;100840.88;;;20.67;42.93
50292;BME280;36190;54.980;73.388;2023-05-25T03:29:33;100844.72;;;20.59;42.36
50292;BME280;36190;54.980;73.388;2023-05-25T03:32:01;100846.44;;;20.54;42.21
50292;BME280;36190;54.980;73.388;2023-05-25T03:34:30;100848.19;;;20.48;41.66
50292;BME280;36190;54.980;73.388;2023-05-25T03:36:59;100860.72;;;20.42;41.20
50292;BME280;36190;54.980;73.388;2023-05-25T03:39:26;100857.22;;;20.35;40.93
50292;BME280;36190;54.980;73.388;2023-05-25T03:41:54;100852.47;;;20.30;40.76
50292;BME280;36190;54.980;73.388;2023-05-25T03:44:22;100849.34;;;20.33;40.79
50292;BME280;36190;54.980;73.388;2023-05-25T03:46:50;100844.91;;;20.39;40.52
50292;BME280;36190;54.980;73.388;2023-05-25T03:49:18;100832.34;;;20.45;40.71
50292;BME280;36190;54.980;73.388;2023-05-25T03:51:46;100841.34;;;20.64;40.58
50292;BME280;36190;54.980;73.388;2023-05-25T03:54:14;100832.81;;;20.79;40.46
50292;BME280;36190;54.980;73.388;2023-05-25T03:56:41;100830.59;;;20.95;40.62
50292;BME280;36190;54.980;73.388;2023-05-25T03:59:09;100823.78;;;21.04;40.65
50292;BME280;36190;54.980;73.388;2023-05-25T04:01:37;100811.94;;;21.17;40.86
50292;BME280;36190;54.980;73.388;2023-05-25T04:04:05;100804.16;;;21.39;40.92
50292;BME280;36190;54.980;73.388;2023-05-25T04:06:32;100806.09;;;21.63;40.88
50292;BME280;36190;54.980;73.388;2023-05-25T04:09:03;100798.25;;;21.85;40.83
50292;BME280;36190;54.980;73.388;2023-05-25T04:11:31;100789.91;;;21.98;40.81
50292;BME280;36190;54.980;73.388;2023-05-25T04:13:58;100789.31;;;22.08;40.90
50292;BME280;36190;54.980;73.388;2023-05-25T04:16:27;100785.53;;;22.21;40.85
50292;BME280;36190;54.980;73.388;2023-05-25T04:18:54;100792.41;;;22.24;41.07
50292;BME280;36190;54.980;73.388;2023-05-25T04:21:22;100796.28;;;22.16;41.44
50292;BME280;36190;54.980;73.388;2023-05-25T04:23:49;100799.56;;;21.94;41.80
50292;BME280;36190;54.980;73.388;2023-05-25T04:26:18;100796.84;;;21.70;42.33
50292;BME280;36190;54.980;73.388;2023-05-25T04:28:46;100793.06;;;21.53;42.80
50292;BME280;36190;54.980;73.388;2023-05-25T04:31:13;100801.75;;;21.31;43.33
50292;BME280;36190;54.980;73.388;2023-05-25T04:33:41;100796.13;;;21.14;43.83
50292;BME280;36190;54.980;73.388;2023-05-25T04:36:09;100804.69;;;20.99;44.18
50292;BME280;36190;54.980;73.388;2023-05-25T04:38:38;100809.84;;;20.82;44.81
50292;BME280;36190;54.980;73.388;2023-05-25T04:41:07;100797.44;;;20.74;45.43
50292;BME280;36190;54.980;73.388;2023-05-25T04:43:36;100754.50;;;20.71;46.66
50292;BME280;36190;54.980;73.388;2023-05-25T04:46:04;100743.22;;;20.74;47.66
50292;BME280;36190;54.980;73.388;2023-05-25T04:48:32;100724.34;;;20.79;48.46
50292;BME280;36190;54.980;73.388;2023-05-25T04:51:00;100715.72;;;20.89;48.98
50292;BME280;36190;54.980;73.388;2023-05-25T04:53:29;100703.13;;;20.95;49.82
50292;BME280;36190;54.980;73.388;2023-05-25T04:55:56;100693.81;;;20.91;50.78
50292;BME280;36190;54.980;73.388;2023-05-25T04:58:24;100708.88;;;20.86;51.22
50292;BME280;36190;54.980;73.388;2023-05-25T05:00:55;100705.94;;;20.88;51.57
50292;BME280;36190;54.980;73.388;2023-05-25T05:03:23;100700.28;;;20.90;51.72
50292;BME280;36190;54.980;73.388;2023-05-25T05:05:51;100688.38;;;20.91;52.09
50292;BME280;36190;54.980;73.388;2023-05-25T05:08:19;100692.16;;;20.90;52.64
50292;BME280;36190;54.980;73.388;2023-05-25T05:10:46;100705.72;;;20.90;52.73
50292;BME280;36190;54.980;73.388;2023-05-25T05:13:14;100702.06;;;20.96;52.58
50292;BME280;36190;54.980;73.388;2023-05-25T05:15:42;100697.38;;;21.03;52.63
50292;BME280;36190;54.980;73.388;2023-05-25T05:18:11;100689.28;;;21.15;52.98
50292;BME280;36190;54.980;73.388;2023-05-25T05:20:39;100677.38;;;21.28;52.82
50292;BME280;36190;54.980;73.388;2023-05-25T05:23:06;100675.53;;;21.40;52.62
50292;BME280;36190;54.980;73.388;2023-05-25T05:25:34;100688.63;;;21.55;52.41
50292;BME280;36190;54.980;73.388;2023-05-25T05:28:02;100690.94;;;21.70;51.70
50292;BME280;36190;54.980;73.388;2023-05-25T05:30:30;100704.63;;;21.76;51.54
50292;BME280;36190;54.980;73.388;2023-05-25T05:32:58;100714.66;;;21.75;51.05
50292;BME280;36190;54.980;73.388;2023-05-25T05:35:27;100707.56;;;21.74;50.96
50292;BME280;36190;54.980;73.388;2023-05-25T05:37:54;100702.50;;;21.78;50.72
50292;BME280;36190;54.980;73.388;2023-05-25T05:40:21;100698.38;;;21.87;50.39
50292;BME280;36190;54.980;73.388;2023-05-25T05:42:50;100704.97;;;22.03;50.07
50292;BME280;36190;54.980;73.388;2023-05-25T05:45:18;100708.00;;;22.31;49.81
50292;BME280;36190;54.980;73.388;2023-05-25T05:47:46;100698.38;;;22.64;49.37
50292;BME280;36190;54.980;73.388;2023-05-25T05:50:13;100700.22;;;23.04;48.26
50292;BME280;36190;54.980;73.388;2023-05-25T05:52:42;100690.97;;;23.34;47.75
50292;BME280;36190;54.980;73.388;2023-05-25T05:55:10;100700.69;;;23.65;46.84
50292;BME280;36190;54.980;73.388;2023-05-25T05:57:37;100699.19;;;23.91;46.19
50292;BME280;36190;54.980;73.388;2023-05-25T06:00:07;100707.16;;;23.98;45.87
50292;BME280;36190;54.980;73.388;2023-05-25T06:02:35;100707.16;;;23.98;45.29
50292;BME280;36190;54.980;73.388;2023-05-25T06:05:03;100699.94;;;23.86;45.85
50292;BME280;36190;54.980;73.388;2023-05-25T06:07:31;100697.72;;;23.83;46.38
50292;BME280;36190;54.980;73.388;2023-05-25T06:10:01;100703.88;;;23.96;46.59
50292;BME280;36190;54.980;73.388;2023-05-25T06:12:28;100696.16;;;24.27;46.40
50292;BME280;36190;54.980;73.388;2023-05-25T06:14:56;100684.38;;;24.43;45.82
50292;BME280;36190;54.980;73.388;2023-05-25T06:17:23;100685.75;;;24.46;45.65
50292;BME280;36190;54.980;73.388;2023-05-25T06:19:51;100677.16;;;24.32;45.82
50292;BME280;36190;54.980;73.388;2023-05-25T06:22:18;100670.91;;;24.14;45.73
50292;BME280;36190;54.980;73.388;2023-05-25T06:24:46;100676.06;;;23.94;45.79
50292;BME280;36190;54.980;73.388;2023-05-25T06:27:15;100687.72;;;23.72;45.98
50292;BME280;36190;54.980;73.388;2023-05-25T06:29:43;100695.34;;;23.53;46.21
50292;BME280;36190;54.980;73.388;2023-05-25T06:32:10;100680.91;;;23.52;46.31
50292;BME280;36190;54.980;73.388;2023-05-25T06:34:38;100675.19;;;23.71;45.96
50292;BME280;36190;54.980;73.388;2023-05-25T06:37:05;100674.34;;;23.87;45.69
50292;BME280;36190;54.980;73.388;2023-05-25T06:39:33;100672.78;;;23.92;45.41
50292;BME280;36190;54.980;73.388;2023-05-25T06:42:00;100681.88;;;24.02;45.48
50292;BME280;36190;54.980;73.388;2023-05-25T06:44:29;100680.00;;;24.03;45.37
50292;BME280;36190;54.980;73.388;2023-05-25T06:46:56;100677.19;;;23.98;45.54
50292;BME280;36190;54.980;73.388;2023-05-25T06:49:24;100675.84;;;23.78;45.59
50292;BME280;36190;54.980;73.388;2023-05-25T06:51:51;100670.50;;;23.49;46.20
50292;BME280;36190;54.980;73.388;2023-05-25T06:54:19;100681.97;;;23.34;46.69
50292;BME280;36190;54.980;73.388;2023-05-25T06:56:47;100681.91;;;23.17;46.98
50292;BME280;36190;54.980;73.388;2023-05-25T06:59:14;100666.31;;;22.95;47.34
50292;BME280;36190;54.980;73.388;2023-05-25T07:01:45;100675.75;;;22.75;47.71
50292;BME280;36190;54.980;73.388;2023-05-25T07:04:12;100664.84;;;22.58;48.12
50292;BME280;36190;54.980;73.388;2023-05-25T07:06:40;100663.44;;;22.44;48.59
50292;BME280;36190;54.980;73.388;2023-05-25T07:09:07;100668.91;;;22.32;48.89
50292;BME280;36190;54.980;73.388;2023-05-25T07:11:35;100667.84;;;22.21;49.18
50292;BME280;36190;54.980;73.388;2023-05-25T07:14:02;100671.66;;;22.08;49.56
50292;BME280;36190;54.980;73.388;2023-05-25T07:16:29;100661.16;;;22.00;49.61
50292;BME280;36190;54.980;73.388;2023-05-25T07:18:59;100658.22;;;21.89;49.80
50292;BME280;36190;54.980;73.388;2023-05-25T07:21:29;100645.47;;;21.78;49.81
50292;BME280;36190;54.980;73.388;2023-05-25T07:23:57;100656.69;;;21.69;49.88
50292;BME280;36190;54.980;73.388;2023-05-25T07:26:25;100667.63;;;21.63;49.92
50292;BME280;36190;54.980;73.388;2023-05-25T07:28:52;100676.97;;;21.55;50.20
50292;BME280;36190;54.980;73.388;2023-05-25T07:31:20;100677.53;;;21.45;50.51
50292;BME280;36190;54.980;73.388;2023-05-25T07:33:48;100680.97;;;21.40;50.72
50292;BME280;36190;54.980;73.388;2023-05-25T07:36:18;100676.94;;;21.31;51.05
50292;BME280;36190;54.980;73.388;2023-05-25T07:38:45;100683.16;;;21.32;51.25
50292;BME280;36190;54.980;73.388;2023-05-25T07:41:13;100693.78;;;21.21;51.65
50292;BME280;36190;54.980;73.388;2023-05-25T07:43:40;100688.47;;;21.14;52.06
50292;BME280;36190;54.980;73.388;2023-05-25T07:46:08;100685.97;;;21.13;52.32
50292;BME280;36190;54.980;73.388;2023-05-25T07:48:36;100682.56;;;21.18;52.38
50292;BME280;36190;54.980;73.388;2023-05-25T07:51:03;100687.31;;;21.34;52.19
50292;BME280;36190;54.980;73.388;2023-05-25T07:53:32;100676.25;;;21.48;51.67
50292;BME280;36190;54.980;73.388;2023-05-25T07:56:00;100680.25;;;21.57;51.25
50292;BME280;36190;54.980;73.388;2023-05-25T07:58:27;100676.38;;;21.65;51.11
50292;BME280;36190;54.980;73.388;2023-05-25T08:00:55;100661.53;;;21.79;50.71
50292;BME280;36190;54.980;73.388;2023-05-25T08:03:22;100669.78;;;21.96;50.24
50292;BME280;36190;54.980;73.388;2023-05-25T08:05:50;100666.72;;;22.05;50.03
50292;BME280;36190;54.980;73.388;2023-05-25T08:08:18;100656.78;;;22.10;49.80
50292;BME280;36190;54.980;73.388;2023-05-25T08:10:47;100664.06;;;22.22;49.50
50292;BME280;36190;54.980;73.388;2023-05-25T08:13:14;100647.28;;;22.25;49.12
50292;BME280;36190;54.980;73.388;2023-05-25T08:15:42;100639.72;;;22.27;48.90
50292;BME280;36190;54.980;73.388;2023-05-25T08:18:09;100639.38;;;22.23;48.91
50292;BME280;36190;54.980;73.388;2023-05-25T08:20:36;100649.06;;;22.19;48.78
50292;BME280;36190;54.980;73.388;2023-05-25T08:23:04;100642.00;;;22.06;48.86
50292;BME280;36190;54.980;73.388;2023-05-25T08:25:31;100645.94;;;21.98;49.08
50292;BME280;36190;54.980;73.388;2023-05-25T08:28:00;100644.16;;;21.92;49.33
50292;BME280;36190;54.980;73.388;2023-05-25T08:30:28;100654.31;;;21.85;49.19
50292;BME280;36190;54.980;73.388;2023-05-25T08:32:55;100648.53;;;21.81;49.14
50292;BME280;36190;54.980;73.388;2023-05-25T08:35:23;100650.53;;;21.86;49.25
50292;BME280;36190;54.980;73.388;2023-05-25T08:37:50;100638.84;;;21.86;49.10
50292;BME280;36190;54.980;73.388;2023-05-25T08:40:18;100635.44;;;21.90;49.15
50292;BME280;36190;54.980;73.388;2023-05-25T08:42:48;100623.25;;;22.05;48.99
50292;BME280;36190;54.980;73.388;2023-05-25T08:45:17;100626.50;;;22.19;49.02
50292;BME280;36190;54.980;73.388;2023-05-25T08:47:47;100625.47;;;22.08;49.18
50292;BME280;36190;54.980;73.388;2023-05-25T08:50:16;100629.63;;;21.98;49.96
50292;BME280;36190;54.980;73.388;2023-05-25T08:52:45;100625.63;;;21.89;50.38
50292;BME280;36190;54.980;73.388;2023-05-25T08:55:14;100626.69;;;21.88;51.11
50292;BME280;36190;54.980;73.388;2023-05-25T08:57:51;100632.84;;;21.72;52.30
50292;BME280;36190;54.980;73.388;2023-05-25T09:00:28;100629.13;;;21.54;53.10
50292;BME280;36190;54.980;73.388;2023-05-25T09:03:05;100629.03;;;21.49;53.62
50292;BME280;36190;54.980;73.388;2023-05-25T09:05:34;100630.22;;;21.53;53.58
50292;BME280;36190;54.980;73.388;2023-05-25T09:08:02;100633.66;;;21.72;53.27
50292;BME280;36190;54.980;73.388;2023-05-25T09:10:32;100620.56;;;21.81;53.22
50292;BME280;36190;54.980;73.388;2023-05-25T09:13:01;100621.13;;;21.95;53.24
50292;BME280;36190;54.980;73.388;2023-05-25T09:15:30;100621.31;;;22.17;52.76
50292;BME280;36190;54.980;73.388;2023-05-25T09:17:58;100615.13;;;22.34;52.34
50292;BME280;36190;54.980;73.388;2023-05-25T09:20:25;100619.81;;;22.50;51.89
50292;BME280;36190;54.980;73.388;2023-05-25T09:22:56;100617.47;;;22.71;51.28
50292;BME280;36190;54.980;73.388;2023-05-25T09:25:25;100617.81;;;22.92;51.01
50292;BME280;36190;54.980;73.388;2023-05-25T09:27:53;100620.34;;;23.11;50.48
50292;BME280;36190;54.980;73.388;2023-05-25T09:30:23;100621.25;;;23.33;49.87
50292;BME280;36190;54.980;73.388;2023-05-25T09:32:52;100606.75;;;23.45;49.35
50292;BME280;36190;54.980;73.388;2023-05-25T09:35:20;100615.19;;;23.66;48.97
50292;BME280;36190;54.980;73.388;2023-05-25T09:37:52;100607.72;;;23.95;48.25
50292;BME280;36190;54.980;73.388;2023-05-25T09:40:21;100618.53;;;24.57;47.00
50292;BME280;36190;54.980;73.388;2023-05-25T09:42:49;100620.53;;;24.94;46.39
50292;BME280;36190;54.980;73.388;2023-05-25T09:45:16;100618.59;;;25.22;45.78
50292;BME280;36190;54.980;73.388;2023-05-25T09:47:44;100614.19;;;25.54;45.00
50292;BME280;36190;54.980;73.388;2023-05-25T09:50:13;100617.38;;;25.89;44.32
50292;BME280;36190;54.980;73.388;2023-05-25T09:52:42;100604.41;;;26.27;43.40
50292;BME280;36190;54.980;73.388;2023-05-25T09:55:10;100603.09;;;26.35;42.96
50292;BME280;36190;54.980;73.388;2023-05-25T09:57:38;100601.31;;;26.03;43.36
50292;BME280;36190;54.980;73.388;2023-05-25T10:00:06;100602.84;;;25.78;43.03
50292;BME280;36190;54.980;73.388;2023-05-25T10:02:36;100598.44;;;25.34;43.83
50292;BME280;36190;54.980;73.388;2023-05-25T10:05:04;100600.09;;;24.97;44.41
50292;BME280;36190;54.980;73.388;2023-05-25T10:07:33;100607.63;;;24.57;45.04
50292;BME280;36190;54.980;73.388;2023-05-25T10:10:05;100585.84;;;24.12;45.77
50292;BME280;36190;54.980;73.388;2023-05-25T10:12:34;100596.09;;;23.83;46.15
50292;BME280;36190;54.980;73.388;2023-05-25T10:15:03;100590.84;;;23.76;46.83
50292;BME280;36190;54.980;73.388;2023-05-25T10:17:31;100586.97;;;24.66;45.51
50292;BME280;36190;54.980;73.388;2023-05-25T10:20:03;100576.88;;;25.75;43.40
50292;BME280;36190;54.980;73.388;2023-05-25T10:22:39;100582.66;;;27.10;41.24
50292;BME280;36190;54.980;73.388;2023-05-25T10:25:13;100581.81;;;28.17;39.30
50292;BME280;36190;54.980;73.388;2023-05-25T10:27:46;100576.16;;;28.83;38.93
50292;BME280;36190;54.980;73.388;2023-05-25T10:30:14;100569.09;;;28.37;37.33
50292;BME280;36190;54.980;73.388;2023-05-25T10:32:43;100555.69;;;27.69;37.38
50292;BME280;36190;54.980;73.388;2023-05-25T10:35:13;100549.00;;;26.99;37.96
50292;BME280;36190;54.980;73.388;2023-05-25T10:37:42;100566.13;;;26.27;38.49
50292;BME280;36190;54.980;73.388;2023-05-25T10:40:12;100571.75;;;25.41;39.70
50292;BME280;36190;54.980;73.388;2023-05-25T10:42:40;100580.19;;;24.69;40.88
50292;BME280;36190;54.980;73.388;2023-05-25T10:45:08;100581.38;;;23.84;43.60
50292;BME280;36190;54.980;73.388;2023-05-25T10:47:38;100582.06;;;23.00;46.44
50292;BME280;36190;54.980;73.388;2023-05-25T10:50:17;100577.84;;;22.46;48.02
50292;BME280;36190;54.980;73.388;2023-05-25T10:52:56;100577.94;;;22.22;48.38
50292;BME280;36190;54.980;73.388;2023-05-25T10:55:24;100577.88;;;22.05;48.70
50292;BME280;36190;54.980;73.388;2023-05-25T10:58:17;100587.22;;;21.97;48.45
50292;BME280;36190;54.980;73.388;2023-05-25T11:00:56;100586.78;;;21.77;49.47
50292;BME280;36190;54.980;73.388;2023-05-25T11:03:49;100606.50;;;21.48;49.86
50292;BME280;36190;54.980;73.388;2023-05-25T11:06:18;100598.44;;;21.06;51.26
50292;BME280;36190;54.980;73.388;2023-05-25T11:08:53;100586.88;;;20.68;51.73
50292;BME280;36190;54.980;73.388;2023-05-25T11:12:00;100607.56;;;20.50;52.57
50292;BME280;36190;54.980;73.388;2023-05-25T11:14:29;100606.25;;;20.22;53.38
50292;BME280;36190;54.980;73.388;2023-05-25T11:17:04;100608.97;;;20.03;53.20
50292;BME280;36190;54.980;73.388;2023-05-25T11:19:41;100583.53;;;19.67;52.18
50292;BME280;36190;54.980;73.388;2023-05-25T11:22:16;100587.41;;;19.52;51.67
50292;BME280;36190;54.980;73.388;2023-05-25T11:24:47;100593.53;;;19.41;51.87
50292;BME280;36190;54.980;73.388;2023-05-25T11:27:21;100580.00;;;19.41;52.30
50292;BME280;36190;54.980;73.388;2023-05-25T11:29:48;100570.13;;;19.54;51.66
50292;BME280;36190;54.980;73.388;2023-05-25T11:32:16;100573.03;;;19.52;52.71
50292;BME280;36190;54.980;73.388;2023-05-25T11:34:44;100566.53;;;19.60;53.31
50292;BME280;36190;54.980;73.388;2023-05-25T11:37:15;100567.72;;;19.64;53.81
50292;BME280;36190;54.980;73.388;2023-05-25T11:39:48;100571.78;;;19.73;54.13
50292;BME280;36190;54.980;73.388;2023-05-25T11:42:16;100555.09;;;19.76;54.22
50292;BME280;36190;54.980;73.388;2023-05-25T11:44:45;100558.25;;;19.92;54.59
50292;BME280;36190;54.980;73.388;2023-05-25T11:47:13;100574.78;;;20.21;54.64
50292;BME280;36190;54.980;73.388;2023-05-25T11:49:44;100566.50;;;20.34;54.53
50292;BME280;36190;54.980;73.388;2023-05-25T11:52:15;100580.16;;;20.58;54.24
50292;BME280;36190;54.980;73.388;2023-05-25T11:54:43;100592.69;;;20.71;54.27
50292;BME280;36190;54.980;73.388;2023-05-25T11:57:17;100600.09;;;20.76;55.31
50292;BME280;36190;54.980;73.388;2023-05-25T11:59:50;100613.81;;;20.81;55.51
50292;BME280;36190;54.980;73.388;2023-05-25T12:02:18;100618.16;;;20.82;55.46
50292;BME280;36190;54.980;73.388;2023-05-25T12:04:52;100627.06;;;20.90;56.31
50292;BME280;36190;54.980;73.388;2023-05-25T12:07:21;100637.44;;;20.93;55.82
50292;BME280;36190;54.980;73.388;2023-05-25T12:09:48;100637.59;;;20.98;55.94
50292;BME280;36190;54.980;73.388;2023-05-25T12:12:18;100633.81;;;20.99;56.20
50292;BME280;36190;54.980;73.388;2023-05-25T12:14:46;100636.06;;;21.14;56.07
50292;BME280;36190;54.980;73.388;2023-05-25T12:17:14;100643.91;;;21.58;55.49
50292;BME280;36190;54.980;73.388;2023-05-25T12:19:42;100649.13;;;23.24;52.84
50292;BME280;36190;54.980;73.388;2023-05-25T12:22:10;100664.16;;;25.22;48.57
50292;BME280;36190;54.980;73.388;2023-05-25T12:24:39;100649.56;;;26.40;45.77
50292;BME280;36190;54.980;73.388;2023-05-25T12:27:17;100660.59;;;26.61;44.30
50292;BME280;36190;54.980;73.388;2023-05-25T12:29:46;100670.41;;;25.93;45.07
50292;BME280;36190;54.980;73.388;2023-05-25T12:32:13;100677.88;;;25.32;46.16
50292;BME280;36190;54.980;73.388;2023-05-25T12:34:41;100665.94;;;25.06;46.45
50292;BME280;36190;54.980;73.388;2023-05-25T12:37:17;100683.31;;;25.27;45.69
50292;BME280;36190;54.980;73.388;2023-05-25T12:39:45;100681.78;;;25.41;43.49
50292;BME280;36190;54.980;73.388;2023-05-25T12:42:14;100678.22;;;25.03;42.36
50292;BME280;36190;54.980;73.388;2023-05-25T12:44:44;100669.88;;;24.65;42.32
50292;BME280;36190;54.980;73.388;2023-05-25T12:47:13;100671.53;;;24.22;41.49
50292;BME280;36190;54.980;73.388;2023-05-25T12:49:42;100683.84;;;23.85;41.13